首页
METAR-TAF:

METAR-TAF

机场 :

班吉-姆波科国际机场

班基, 中非共和国

纬度: 04-24N, 经度: 018-31E, 海拔: 365米

当前天气观测

该预报发布于1小时和11分钟前的13:00 UTC
风速6节,风向西转西南
温度 24°C
湿度 74%
气压 1012 hPa
能见度10公里或以上
多云层高于1300英尺

METAR: FEFF 191300Z 24006KT 9999 BKN013 24/19 Q1012 NOSIG

时间: 15:11 (14:11 UTC)

预报

该预报发布于3小时和11分钟前的11:00 UTC
预报有效从19日的 12点(UTC)到 20日的 18点(UTC)
风速6节,风向西
能见度10公里或以上
多云层高于2000英尺
少量云层高于4000英尺, 积雨云.
几率 30% :
短暂存在
从 19日的 15点(UTC)到 19日的 21点(UTC)
能見度: 4000
雷暴, 雨
成为
从 20日的 03点(UTC)到 20日的 05点(UTC)
多云层高于500英尺
成为
从 20日的 08点(UTC)到 20日的 10点(UTC)
多云层高于1300英尺
成为
从 20日的 11点(UTC)到 20日的 13点(UTC)
散云层高于2600英尺
少量云层高于3300英尺, 积雨云.
短暂存在
从 20日的 14点(UTC)到 20日的 18点(UTC)
雷暴

TAF: FEFF 191100Z 1912/2018 27006KT 9999 BKN020 FEW040CB PROB30 TEMPO 1915/1921 4000 TSRA BECMG 2003/2005 BKN005 BECMG 2008/2010 BKN013 BECMG 2011/2013 SCT026 FEW033CB TEMPO 2014/2018 TS

超过4000个机场的气象观测和天气预报(METAR&TAF报告)。

可查询的气象台以黄色和红色小点在地图上表示。

将鼠标移到小点上方,可查看气象台名称。

然后点击查看天气观测和预报。

如需切换地图:点击带黑十字的绿色按钮放大地图;点击带横线的绿色按钮缩小地图;或者点击绿色箭头查看邻近地区的地图。


METAR-TAF: